»·PEaware :: N902SQ KPHX-KHHR

N902SQ :: KPHX-KHHR

FLIGHT INFORMATION

Flight Status: Arrived
Operator: Privately registered:
United States
More flights under this callsign
Pilot: Gabor H. (24209)
Aircraft: SOCATA TBM-900
(TBM9)
More flights by this aircraft type
Origin: KPHX Phoenix Sky Harbor Intl
United States
Destination: KHHR Northrop/Hawthorne Mun
United States
More flights between these airports :: More routes between these airports
Route: KEENS2 HRRBR CURIV J212 DECAS PSP V388 PDZ V16 LAHAB
File this flight plan on PilotEdge
Remarks:
Altitude:
(Current/Filed)
26,000ft
Speed:
(Current/Filed)
305kts
Departed: 13-Oct-23 06:20 PM
Arrived: 13-Oct-23 07:38 PM
Distance/Time
Traveled:
317nm/1:18
Distance/Time
To Go:
Arrived

Flight Plot

Page will automatically refresh every two minutes.

Flight plan parsing failed; only flown route is shown


Map Options




Map Legend


Flown Route
Filed Route
Departure Airport
Arrival Airport
Navaid (VOR, NDB)
Fix

Horizontal Profiles

Position Reports

Time Latitude Longitude Heading Altitude Ground
Speed
13-Oct-23 17:59 33.426031 -112.020030 181 1112ft 0kts
13-Oct-23 18:00 33.426031 -112.020030 181 1112ft 0kts
13-Oct-23 18:01 33.426031 -112.020030 181 1112ft 0kts
13-Oct-23 18:02 33.426031 -112.020030 181 1112ft 0kts
13-Oct-23 18:03 33.426031 -112.020030 181 1112ft 0kts
13-Oct-23 18:04 33.426031 -112.020030 181 1112ft 0kts
13-Oct-23 18:05 33.426031 -112.020030 181 1112ft 0kts
13-Oct-23 18:06 33.426031 -112.020030 181 1112ft 0kts
13-Oct-23 18:07 33.426031 -112.020030 181 1112ft 0kts
13-Oct-23 18:08 33.426031 -112.020030 181 1112ft 0kts
13-Oct-23 18:09 33.426031 -112.020030 181 1112ft 0kts
13-Oct-23 18:10 33.426031 -112.020030 181 1112ft 0kts
13-Oct-23 18:11 33.426031 -112.020030 181 1112ft 0kts
13-Oct-23 18:12 33.426031 -112.020030 181 1112ft 0kts
13-Oct-23 18:13 33.425906 -112.020882 299 1112ft 7kts
13-Oct-23 18:14 33.427754 -112.020616 88 1112ft 11kts
13-Oct-23 18:15 33.427761 -112.015110 89 1114ft 19kts
13-Oct-23 18:16 33.427753 -112.007855 90 1115ft 23kts
13-Oct-23 18:17 33.427864 -112.005496 46 1115ft 0kts
13-Oct-23 18:18 33.427864 -112.005496 46 1115ft 0kts
13-Oct-23 18:19 33.428835 -112.012817 270 1116ft 102kts
13-Oct-23 18:20 33.427491 -112.055892 269 2946ft 136kts
13-Oct-23 18:21 33.417116 -112.098537 250 5106ft 137kts
13-Oct-23 18:22 33.405339 -112.142022 250 7422ft 141kts
13-Oct-23 18:23 33.393137 -112.187179 250 9712ft 147kts
13-Oct-23 18:24 33.396086 -112.234674 276 12025ft 147kts
13-Oct-23 18:25 33.403319 -112.283213 276 14313ft 151kts
13-Oct-23 18:26 33.410705 -112.332958 276 16510ft 156kts
13-Oct-23 18:27 33.418246 -112.383810 275 18834ft 159kts
13-Oct-23 18:28 33.425894 -112.435545 274 21153ft 160kts
13-Oct-23 18:29 33.433631 -112.488116 273 23366ft 164kts
13-Oct-23 18:30 33.441411 -112.541100 272 25705ft 162kts
13-Oct-23 18:31 33.450066 -112.607298 266 25995ft 236kts
13-Oct-23 18:32 33.451321 -112.692309 266 25972ft 267kts
13-Oct-23 18:33 33.452507 -112.782598 266 25965ft 273kts
13-Oct-23 18:34 33.466452 -112.873094 277 25964ft 279kts
13-Oct-23 18:35 33.483447 -112.963976 277 25963ft 279kts
13-Oct-23 18:36 33.500338 -113.054747 277 25963ft 279kts
13-Oct-23 18:37 33.517233 -113.145859 277 25962ft 279kts
13-Oct-23 18:38 33.533992 -113.236667 277 25961ft 279kts
13-Oct-23 18:39 33.550723 -113.327726 277 25961ft 279kts
13-Oct-23 18:40 33.567406 -113.418977 277 25981ft 281kts
13-Oct-23 18:41 33.584250 -113.511561 277 25960ft 286kts
13-Oct-23 18:42 33.601757 -113.605040 278 25941ft 289kts
13-Oct-23 18:43 33.619150 -113.698508 277 25981ft 287kts
13-Oct-23 18:44 33.636504 -113.792475 277 25940ft 287kts
13-Oct-23 18:45 33.653736 -113.885643 277 25976ft 285kts
13-Oct-23 18:46 33.670955 -113.979285 277 25962ft 287kts
13-Oct-23 18:47 33.687966 -114.072564 277 25935ft 287kts
13-Oct-23 18:48 33.705024 -114.165904 276 25940ft 286kts
13-Oct-23 18:49 33.721919 -114.259470 277 25952ft 289kts
13-Oct-23 18:50 33.738968 -114.353835 277 25928ft 287kts
13-Oct-23 18:51 33.755630 -114.446615 277 25951ft 282kts
13-Oct-23 18:52 33.772040 -114.538605 276 25951ft 280kts
13-Oct-23 18:53 33.778154 -114.630959 270 25950ft 277kts
13-Oct-23 18:54 33.783534 -114.723657 269 25958ft 278kts
13-Oct-23 18:55 33.788871 -114.816835 269 25957ft 279kts
13-Oct-23 18:56 33.794125 -114.909858 269 25956ft 279kts
13-Oct-23 18:57 33.799325 -115.003231 269 25955ft 279kts
13-Oct-23 18:58 33.804461 -115.096563 270 25955ft 280kts
13-Oct-23 18:59 33.809519 -115.189878 270 25954ft 280kts
13-Oct-23 19:00 33.814534 -115.283734 270 25943ft 281kts
13-Oct-23 19:01 33.819469 -115.377304 270 25928ft 281kts
13-Oct-23 19:02 33.824353 -115.471419 270 25915ft 281kts
13-Oct-23 19:03 33.829168 -115.565478 270 25915ft 281kts
13-Oct-23 19:04 33.833909 -115.659610 270 25918ft 281kts
13-Oct-23 19:05 33.838599 -115.754063 270 25920ft 282kts
13-Oct-23 19:06 33.843171 -115.847651 270 25919ft 283kts
13-Oct-23 19:07 33.847718 -115.942189 270 25919ft 283kts
13-Oct-23 19:08 33.852185 -116.036641 270 25918ft 282kts
13-Oct-23 19:09 33.856592 -116.131222 270 25918ft 282kts
13-Oct-23 19:10 33.860831 -116.225666 271 25924ft 283kts
13-Oct-23 19:11 33.865227 -116.321963 272 25182ft 294kts
13-Oct-23 19:12 33.869656 -116.422074 272 24180ft 302kts
13-Oct-23 19:13 33.892907 -116.519906 285 23145ft 304kts
13-Oct-23 19:14 33.917614 -116.617141 285 22123ft 303kts
13-Oct-23 19:15 33.942437 -116.715339 285 20603ft 308kts
13-Oct-23 19:16 33.946151 -116.817092 267 19084ft 309kts
13-Oct-23 19:17 33.942533 -116.919863 267 17562ft 304kts
13-Oct-23 19:18 33.938975 -117.020827 267 16068ft 299kts
13-Oct-23 19:19 33.935410 -117.119822 267 14603ft 295kts
13-Oct-23 19:20 33.931487 -117.217553 267 13155ft 287kts
13-Oct-23 19:21 33.927339 -117.313096 267 11741ft 284kts
13-Oct-23 19:22 33.923378 -117.407942 267 10346ft 282kts
13-Oct-23 19:23 33.919473 -117.502391 267 8960ft 275kts
13-Oct-23 19:24 33.919510 -117.589823 271 7665ft 253kts
13-Oct-23 19:25 33.921122 -117.672715 271 6439ft 233kts
13-Oct-23 19:26 33.922519 -117.747504 271 5331ft 221kts
13-Oct-23 19:27 33.923846 -117.821545 270 4237ft 215kts
13-Oct-23 19:29 33.925077 -117.891914 270 3191ft 206kts
13-Oct-23 19:30 33.925916 -117.958984 274 2987ft 198kts
13-Oct-23 19:31 33.930670 -118.024175 275 2545ft 185kts
13-Oct-23 19:32 33.935586 -118.083929 261 2220ft 177kts
13-Oct-23 19:33 33.932033 -118.141725 265 1898ft 167kts
13-Oct-23 19:34 33.929305 -118.196654 266 1573ft 162kts
13-Oct-23 19:35 33.927104 -118.244824 267 1308ft 122kts
13-Oct-23 19:36 33.924890 -118.283325 268 1026ft 92kts
13-Oct-23 19:37 33.923860 -118.313579 267 425ft 88kts
13-Oct-23 19:38 33.922601 -118.334425 179 65ft 10kts
13-Oct-23 19:39 33.922595 -118.331151 86 64ft 16kts
13-Oct-23 19:40 33.922479 -118.327955 53 63ft 2kts
13-Oct-23 19:41 33.922486 -118.327946 47 63ft 0kts
13-Oct-23 19:42 33.922486 -118.327946 47 63ft 0kts
13-Oct-23 19:43 33.922485 -118.327946 47 63ft 0kts
13-Oct-23 19:44 33.922485 -118.327946 47 63ft 0kts
13-Oct-23 19:45 33.922485 -118.327946 47 63ft 0kts
13-Oct-23 19:46 33.922486 -118.327946 47 63ft 0kts
13-Oct-23 19:47 33.922486 -118.327946 47 63ft 0kts
13-Oct-23 19:48 33.922486 -118.327946 47 63ft 0kts
13-Oct-23 19:49 33.922486 -118.327946 47 63ft 0kts
13-Oct-23 19:50 33.922486 -118.327946 47 63ft 0kts

Navigation Log

Ident Type
Flight plan parsing failed, navigation log unavailable